sensor_id;sensor_type;location;lat;lon;timestamp;P1;durP1;ratioP1;P2;durP2;ratioP2
18899;SDS011;9582;52.018;6.306;2022-12-15T00:02:19;22.63;;;13.47;;
18899;SDS011;9582;52.018;6.306;2022-12-15T00:05:05;19.83;;;11.83;;
18899;SDS011;9582;52.018;6.306;2022-12-15T00:07:49;23.73;;;13.30;;
18899;SDS011;9582;52.018;6.306;2022-12-15T00:10:33;21.60;;;12.27;;
18899;SDS011;9582;52.018;6.306;2022-12-15T00:13:17;23.70;;;12.10;;
18899;SDS011;9582;52.018;6.306;2022-12-15T00:16:01;19.97;;;11.70;;
18899;SDS011;9582;52.018;6.306;2022-12-15T00:18:46;20.67;;;11.13;;
18899;SDS011;9582;52.018;6.306;2022-12-15T00:21:31;20.63;;;11.27;;
18899;SDS011;9582;52.018;6.306;2022-12-15T00:24:15;18.77;;;10.70;;
18899;SDS011;9582;52.018;6.306;2022-12-15T00:26:59;18.87;;;10.73;;
18899;SDS011;9582;52.018;6.306;2022-12-15T00:29:43;17.80;;;10.77;;
18899;SDS011;9582;52.018;6.306;2022-12-15T00:32:27;20.80;;;12.10;;
18899;SDS011;9582;52.018;6.306;2022-12-15T00:35:12;20.77;;;11.37;;
18899;SDS011;9582;52.018;6.306;2022-12-15T00:37:57;19.50;;;11.67;;
18899;SDS011;9582;52.018;6.306;2022-12-15T00:40:41;15.87;;;9.87;;
18899;SDS011;9582;52.018;6.306;2022-12-15T00:43:08;19.93;;;11.30;;
18899;SDS011;9582;52.018;6.306;2022-12-15T00:45:36;16.70;;;10.63;;
18899;SDS011;9582;52.018;6.306;2022-12-15T00:48:19;20.80;;;11.20;;
18899;SDS011;9582;52.018;6.306;2022-12-15T00:50:46;21.67;;;12.30;;
18899;SDS011;9582;52.018;6.306;2022-12-15T00:53:18;17.63;;;10.30;;
18899;SDS011;9582;52.018;6.306;2022-12-15T00:56:03;20.33;;;10.17;;
18899;SDS011;9582;52.018;6.306;2022-12-15T00:58:47;17.57;;;11.13;;
18899;SDS011;9582;52.018;6.306;2022-12-15T01:01:32;15.83;;;9.70;;
18899;SDS011;9582;52.018;6.306;2022-12-15T01:04:16;17.37;;;10.23;;
18899;SDS011;9582;52.018;6.306;2022-12-15T01:07:00;16.70;;;10.33;;
18899;SDS011;9582;52.018;6.306;2022-12-15T01:09:45;17.47;;;10.50;;
18899;SDS011;9582;52.018;6.306;2022-12-15T01:12:29;15.97;;;10.50;;
18899;SDS011;9582;52.018;6.306;2022-12-15T01:15:14;19.87;;;10.10;;
18899;SDS011;9582;52.018;6.306;2022-12-15T01:17:58;15.87;;;10.03;;
18899;SDS011;9582;52.018;6.306;2022-12-15T01:20:42;18.13;;;10.93;;
18899;SDS011;9582;52.018;6.306;2022-12-15T01:23:08;20.07;;;10.80;;
18899;SDS011;9582;52.018;6.306;2022-12-15T01:25:37;20.03;;;10.77;;
18899;SDS011;9582;52.018;6.306;2022-12-15T01:28:04;17.10;;;10.63;;
18899;SDS011;9582;52.018;6.306;2022-12-15T01:30:31;19.37;;;11.60;;
18899;SDS011;9582;52.018;6.306;2022-12-15T01:32:57;16.27;;;10.53;;
18899;SDS011;9582;52.018;6.306;2022-12-15T01:35:23;19.03;;;10.77;;
18899;SDS011;9582;52.018;6.306;2022-12-15T01:37:51;17.33;;;10.73;;
18899;SDS011;9582;52.018;6.306;2022-12-15T01:40:19;16.87;;;10.60;;
18899;SDS011;9582;52.018;6.306;2022-12-15T01:43:07;17.57;;;10.77;;
18899;SDS011;9582;52.018;6.306;2022-12-15T01:48:24;17.73;;;10.57;;
18899;SDS011;9582;52.018;6.306;2022-12-15T01:50:59;18.97;;;10.67;;
18899;SDS011;9582;52.018;6.306;2022-12-15T01:53:32;17.67;;;9.80;;
18899;SDS011;9582;52.018;6.306;2022-12-15T01:56:03;17.90;;;10.67;;
18899;SDS011;9582;52.018;6.306;2022-12-15T01:58:32;15.97;;;10.57;;
18899;SDS011;9582;52.018;6.306;2022-12-15T02:01:00;16.87;;;10.37;;
18899;SDS011;9582;52.018;6.306;2022-12-15T02:03:27;19.03;;;11.17;;
18899;SDS011;9582;52.018;6.306;2022-12-15T02:05:53;15.30;;;9.83;;
18899;SDS011;9582;52.018;6.306;2022-12-15T02:08:21;17.27;;;10.53;;
18899;SDS011;9582;52.018;6.306;2022-12-15T02:10:55;16.87;;;10.60;;
18899;SDS011;9582;52.018;6.306;2022-12-15T02:13:36;17.53;;;9.83;;
18899;SDS011;9582;52.018;6.306;2022-12-15T02:16:09;18.23;;;11.33;;
18899;SDS011;9582;52.018;6.306;2022-12-15T02:18:46;19.00;;;10.67;;
18899;SDS011;9582;52.018;6.306;2022-12-15T02:21:20;19.37;;;10.67;;
18899;SDS011;9582;52.018;6.306;2022-12-15T02:27:11;17.20;;;10.27;;
18899;SDS011;9582;52.018;6.306;2022-12-15T02:32:56;15.17;;;9.73;;
18899;SDS011;9582;52.018;6.306;2022-12-15T02:35:29;16.00;;;10.13;;
18899;SDS011;9582;52.018;6.306;2022-12-15T02:38:02;18.37;;;10.57;;
18899;SDS011;9582;52.018;6.306;2022-12-15T02:40:28;16.07;;;10.00;;
18899;SDS011;9582;52.018;6.306;2022-12-15T02:42:56;17.57;;;10.53;;
18899;SDS011;9582;52.018;6.306;2022-12-15T02:45:33;19.37;;;10.77;;
18899;SDS011;9582;52.018;6.306;2022-12-15T02:48:09;19.43;;;10.07;;
18899;SDS011;9582;52.018;6.306;2022-12-15T02:50:46;16.40;;;9.87;;
18899;SDS011;9582;52.018;6.306;2022-12-15T02:53:32;16.43;;;9.77;;
18899;SDS011;9582;52.018;6.306;2022-12-15T02:56:15;21.17;;;11.20;;
18899;SDS011;9582;52.018;6.306;2022-12-15T02:58:51;19.70;;;11.10;;
18899;SDS011;9582;52.018;6.306;2022-12-15T03:01:29;17.53;;;10.67;;
18899;SDS011;9582;52.018;6.306;2022-12-15T03:03:59;20.07;;;10.70;;
18899;SDS011;9582;52.018;6.306;2022-12-15T03:06:27;18.73;;;10.17;;
18899;SDS011;9582;52.018;6.306;2022-12-15T03:08:54;17.93;;;10.97;;
18899;SDS011;9582;52.018;6.306;2022-12-15T03:11:20;17.67;;;10.50;;
18899;SDS011;9582;52.018;6.306;2022-12-15T03:13:47;17.47;;;10.77;;
18899;SDS011;9582;52.018;6.306;2022-12-15T03:16:14;15.73;;;9.57;;
18899;SDS011;9582;52.018;6.306;2022-12-15T03:18:42;13.43;;;7.93;;
18899;SDS011;9582;52.018;6.306;2022-12-15T03:21:09;19.07;;;10.30;;
18899;SDS011;9582;52.018;6.306;2022-12-15T03:23:35;15.57;;;9.53;;
18899;SDS011;9582;52.018;6.306;2022-12-15T03:26:02;18.53;;;10.40;;
18899;SDS011;9582;52.018;6.306;2022-12-15T03:28:29;17.93;;;10.50;;
18899;SDS011;9582;52.018;6.306;2022-12-15T03:30:55;18.27;;;10.17;;
18899;SDS011;9582;52.018;6.306;2022-12-15T03:33:22;16.33;;;10.60;;
18899;SDS011;9582;52.018;6.306;2022-12-15T03:35:49;17.60;;;10.30;;
18899;SDS011;9582;52.018;6.306;2022-12-15T03:38:16;17.17;;;9.40;;
18899;SDS011;9582;52.018;6.306;2022-12-15T03:40:43;17.37;;;9.87;;
18899;SDS011;9582;52.018;6.306;2022-12-15T03:43:09;16.67;;;9.90;;
18899;SDS011;9582;52.018;6.306;2022-12-15T03:45:36;17.70;;;10.90;;
18899;SDS011;9582;52.018;6.306;2022-12-15T03:48:02;17.57;;;10.27;;
18899;SDS011;9582;52.018;6.306;2022-12-15T03:50:29;19.33;;;10.77;;
18899;SDS011;9582;52.018;6.306;2022-12-15T03:52:58;19.90;;;10.47;;
18899;SDS011;9582;52.018;6.306;2022-12-15T03:55:26;17.30;;;10.47;;
18899;SDS011;9582;52.018;6.306;2022-12-15T03:57:53;16.87;;;9.80;;
18899;SDS011;9582;52.018;6.306;2022-12-15T04:00:20;19.80;;;11.03;;
18899;SDS011;9582;52.018;6.306;2022-12-15T04:02:48;18.00;;;10.77;;
18899;SDS011;9582;52.018;6.306;2022-12-15T04:05:16;18.30;;;11.13;;
18899;SDS011;9582;52.018;6.306;2022-12-15T04:07:44;15.77;;;10.83;;
18899;SDS011;9582;52.018;6.306;2022-12-15T04:10:12;16.80;;;10.47;;
18899;SDS011;9582;52.018;6.306;2022-12-15T04:12:38;18.33;;;11.20;;
18899;SDS011;9582;52.018;6.306;2022-12-15T04:15:05;17.57;;;10.90;;
18899;SDS011;9582;52.018;6.306;2022-12-15T04:17:33;15.73;;;9.80;;
18899;SDS011;9582;52.018;6.306;2022-12-15T04:20:00;18.97;;;10.40;;
18899;SDS011;9582;52.018;6.306;2022-12-15T04:22:35;20.23;;;11.30;;
18899;SDS011;9582;52.018;6.306;2022-12-15T04:25:02;20.30;;;10.67;;
18899;SDS011;9582;52.018;6.306;2022-12-15T04:27:48;18.37;;;10.40;;
18899;SDS011;9582;52.018;6.306;2022-12-15T04:30:32;18.67;;;10.20;;
18899;SDS011;9582;52.018;6.306;2022-12-15T04:33:17;16.53;;;10.10;;
18899;SDS011;9582;52.018;6.306;2022-12-15T04:36:02;18.77;;;9.87;;
18899;SDS011;9582;52.018;6.306;2022-12-15T04:38:46;18.03;;;10.57;;
18899;SDS011;9582;52.018;6.306;2022-12-15T04:41:30;17.80;;;9.83;;
18899;SDS011;9582;52.018;6.306;2022-12-15T04:44:16;18.00;;;10.27;;
18899;SDS011;9582;52.018;6.306;2022-12-15T04:47:01;16.23;;;10.53;;
18899;SDS011;9582;52.018;6.306;2022-12-15T04:49:45;17.13;;;10.07;;
18899;SDS011;9582;52.018;6.306;2022-12-15T04:52:29;17.17;;;10.53;;
18899;SDS011;9582;52.018;6.306;2022-12-15T04:55:13;17.07;;;10.40;;
18899;SDS011;9582;52.018;6.306;2022-12-15T04:58:02;18.10;;;10.60;;
18899;SDS011;9582;52.018;6.306;2022-12-15T05:00:49;18.63;;;10.73;;
18899;SDS011;9582;52.018;6.306;2022-12-15T05:03:33;19.73;;;10.80;;
18899;SDS011;9582;52.018;6.306;2022-12-15T05:06:18;16.60;;;11.00;;
18899;SDS011;9582;52.018;6.306;2022-12-15T05:09:02;17.77;;;10.33;;
18899;SDS011;9582;52.018;6.306;2022-12-15T05:11:46;19.07;;;10.87;;
18899;SDS011;9582;52.018;6.306;2022-12-15T05:14:30;16.77;;;10.07;;
18899;SDS011;9582;52.018;6.306;2022-12-15T05:17:16;19.83;;;10.73;;
18899;SDS011;9582;52.018;6.306;2022-12-15T05:20:00;17.60;;;10.83;;
18899;SDS011;9582;52.018;6.306;2022-12-15T05:22:44;17.87;;;11.23;;
18899;SDS011;9582;52.018;6.306;2022-12-15T05:25:29;16.90;;;9.90;;
18899;SDS011;9582;52.018;6.306;2022-12-15T05:28:12;20.87;;;11.80;;
18899;SDS011;9582;52.018;6.306;2022-12-15T05:30:57;18.90;;;10.97;;
18899;SDS011;9582;52.018;6.306;2022-12-15T05:33:42;18.17;;;11.53;;
18899;SDS011;9582;52.018;6.306;2022-12-15T05:36:09;20.37;;;10.73;;
18899;SDS011;9582;52.018;6.306;2022-12-15T05:38:35;16.17;;;9.60;;
18899;SDS011;9582;52.018;6.306;2022-12-15T05:41:02;12.57;;;7.67;;
18899;SDS011;9582;52.018;6.306;2022-12-15T05:43:28;16.40;;;10.77;;
18899;SDS011;9582;52.018;6.306;2022-12-15T05:45:55;17.67;;;10.50;;
18899;SDS011;9582;52.018;6.306;2022-12-15T05:48:21;20.57;;;9.03;;
18899;SDS011;9582;52.018;6.306;2022-12-15T05:50:49;17.57;;;8.80;;
18899;SDS011;9582;52.018;6.306;2022-12-15T05:53:15;19.67;;;10.63;;
18899;SDS011;9582;52.018;6.306;2022-12-15T05:55:42;18.23;;;9.30;;
18899;SDS011;9582;52.018;6.306;2022-12-15T05:58:08;17.90;;;9.93;;
18899;SDS011;9582;52.018;6.306;2022-12-15T06:00:35;17.53;;;10.37;;
18899;SDS011;9582;52.018;6.306;2022-12-15T06:03:02;16.83;;;9.77;;
18899;SDS011;9582;52.018;6.306;2022-12-15T06:05:28;18.83;;;9.17;;
18899;SDS011;9582;52.018;6.306;2022-12-15T06:07:56;15.40;;;9.27;;
18899;SDS011;9582;52.018;6.306;2022-12-15T06:10:24;17.50;;;9.93;;
18899;SDS011;9582;52.018;6.306;2022-12-15T06:12:51;15.83;;;9.90;;
18899;SDS011;9582;52.018;6.306;2022-12-15T06:15:18;16.67;;;9.33;;
18899;SDS011;9582;52.018;6.306;2022-12-15T06:17:44;15.37;;;9.07;;
18899;SDS011;9582;52.018;6.306;2022-12-15T06:20:11;19.40;;;9.63;;
18899;SDS011;9582;52.018;6.306;2022-12-15T06:22:37;19.23;;;10.03;;
18899;SDS011;9582;52.018;6.306;2022-12-15T06:25:06;16.17;;;9.67;;
18899;SDS011;9582;52.018;6.306;2022-12-15T06:27:34;16.67;;;9.27;;
18899;SDS011;9582;52.018;6.306;2022-12-15T06:30:00;20.03;;;10.73;;
18899;SDS011;9582;52.018;6.306;2022-12-15T06:32:27;19.07;;;9.63;;
18899;SDS011;9582;52.018;6.306;2022-12-15T06:34:53;20.70;;;10.37;;
18899;SDS011;9582;52.018;6.306;2022-12-15T06:37:20;19.67;;;11.50;;
18899;SDS011;9582;52.018;6.306;2022-12-15T06:39:46;18.90;;;9.63;;
18899;SDS011;9582;52.018;6.306;2022-12-15T06:42:14;20.13;;;10.20;;
18899;SDS011;9582;52.018;6.306;2022-12-15T06:44:41;20.47;;;9.63;;
18899;SDS011;9582;52.018;6.306;2022-12-15T06:47:08;21.23;;;10.87;;
18899;SDS011;9582;52.018;6.306;2022-12-15T06:49:34;15.53;;;10.40;;
18899;SDS011;9582;52.018;6.306;2022-12-15T06:52:00;19.23;;;10.37;;
18899;SDS011;9582;52.018;6.306;2022-12-15T06:54:27;21.77;;;12.07;;
18899;SDS011;9582;52.018;6.306;2022-12-15T06:56:53;18.37;;;11.17;;
18899;SDS011;9582;52.018;6.306;2022-12-15T06:59:21;22.13;;;11.73;;
18899;SDS011;9582;52.018;6.306;2022-12-15T07:01:48;23.97;;;12.67;;
18899;SDS011;9582;52.018;6.306;2022-12-15T07:04:14;16.90;;;11.10;;
18899;SDS011;9582;52.018;6.306;2022-12-15T07:06:41;26.13;;;14.37;;
18899;SDS011;9582;52.018;6.306;2022-12-15T07:09:10;23.27;;;14.10;;
18899;SDS011;9582;52.018;6.306;2022-12-15T07:11:40;29.23;;;15.80;;
18899;SDS011;9582;52.018;6.306;2022-12-15T07:14:07;20.93;;;12.60;;
18899;SDS011;9582;52.018;6.306;2022-12-15T07:16:36;25.43;;;14.80;;
18899;SDS011;9582;52.018;6.306;2022-12-15T07:19:02;25.50;;;14.43;;
18899;SDS011;9582;52.018;6.306;2022-12-15T07:21:29;24.73;;;12.07;;
18899;SDS011;9582;52.018;6.306;2022-12-15T07:23:57;25.90;;;13.30;;
18899;SDS011;9582;52.018;6.306;2022-12-15T07:26:23;28.07;;;12.47;;
18899;SDS011;9582;52.018;6.306;2022-12-15T07:28:50;25.53;;;15.17;;
18899;SDS011;9582;52.018;6.306;2022-12-15T07:31:17;28.73;;;16.30;;
18899;SDS011;9582;52.018;6.306;2022-12-15T07:33:44;27.17;;;15.80;;
18899;SDS011;9582;52.018;6.306;2022-12-15T07:36:12;26.80;;;15.93;;
18899;SDS011;9582;52.018;6.306;2022-12-15T07:38:38;26.63;;;15.77;;
18899;SDS011;9582;52.018;6.306;2022-12-15T07:41:06;26.20;;;15.50;;
18899;SDS011;9582;52.018;6.306;2022-12-15T07:43:33;27.73;;;14.50;;
18899;SDS011;9582;52.018;6.306;2022-12-15T07:46:00;31.00;;;16.27;;
18899;SDS011;9582;52.018;6.306;2022-12-15T07:48:26;31.33;;;16.87;;
18899;SDS011;9582;52.018;6.306;2022-12-15T07:50:54;28.87;;;15.80;;
18899;SDS011;9582;52.018;6.306;2022-12-15T07:53:23;26.07;;;15.60;;
18899;SDS011;9582;52.018;6.306;2022-12-15T07:55:54;28.13;;;15.07;;
18899;SDS011;9582;52.018;6.306;2022-12-15T07:58:23;24.27;;;13.23;;
18899;SDS011;9582;52.018;6.306;2022-12-15T08:00:50;25.17;;;13.50;;
18899;SDS011;9582;52.018;6.306;2022-12-15T08:03:16;25.50;;;13.80;;
18899;SDS011;9582;52.018;6.306;2022-12-15T08:05:43;27.00;;;13.73;;
18899;SDS011;9582;52.018;6.306;2022-12-15T08:08:11;32.07;;;17.03;;
18899;SDS011;9582;52.018;6.306;2022-12-15T08:10:38;26.73;;;14.23;;
18899;SDS011;9582;52.018;6.306;2022-12-15T08:13:05;27.17;;;13.10;;
18899;SDS011;9582;52.018;6.306;2022-12-15T08:15:33;31.37;;;15.00;;
18899;SDS011;9582;52.018;6.306;2022-12-15T08:18:00;30.17;;;15.70;;
18899;SDS011;9582;52.018;6.306;2022-12-15T08:20:27;25.87;;;14.83;;
18899;SDS011;9582;52.018;6.306;2022-12-15T08:22:54;31.73;;;14.90;;
18899;SDS011;9582;52.018;6.306;2022-12-15T08:25:22;25.13;;;14.53;;
18899;SDS011;9582;52.018;6.306;2022-12-15T08:27:49;32.37;;;15.67;;
18899;SDS011;9582;52.018;6.306;2022-12-15T08:30:16;22.83;;;12.83;;
18899;SDS011;9582;52.018;6.306;2022-12-15T08:32:43;28.57;;;15.23;;
18899;SDS011;9582;52.018;6.306;2022-12-15T08:35:10;30.03;;;15.83;;
18899;SDS011;9582;52.018;6.306;2022-12-15T08:37:36;28.50;;;15.43;;
18899;SDS011;9582;52.018;6.306;2022-12-15T08:40:03;37.33;;;17.03;;
18899;SDS011;9582;52.018;6.306;2022-12-15T08:42:33;33.10;;;19.33;;
18899;SDS011;9582;52.018;6.306;2022-12-15T08:44:59;30.70;;;18.07;;
18899;SDS011;9582;52.018;6.306;2022-12-15T08:47:26;32.10;;;17.70;;
18899;SDS011;9582;52.018;6.306;2022-12-15T08:49:52;36.30;;;19.37;;
18899;SDS011;9582;52.018;6.306;2022-12-15T08:52:19;35.97;;;19.93;;
18899;SDS011;9582;52.018;6.306;2022-12-15T08:54:46;38.97;;;22.10;;
18899;SDS011;9582;52.018;6.306;2022-12-15T08:57:13;37.77;;;21.50;;
18899;SDS011;9582;52.018;6.306;2022-12-15T08:59:40;37.53;;;22.93;;
18899;SDS011;9582;52.018;6.306;2022-12-15T09:02:08;39.43;;;21.00;;
18899;SDS011;9582;52.018;6.306;2022-12-15T09:04:35;36.70;;;20.77;;
18899;SDS011;9582;52.018;6.306;2022-12-15T09:07:02;39.07;;;21.37;;
18899;SDS011;9582;52.018;6.306;2022-12-15T09:09:29;43.87;;;21.90;;
18899;SDS011;9582;52.018;6.306;2022-12-15T09:11:55;37.93;;;22.00;;
18899;SDS011;9582;52.018;6.306;2022-12-15T09:14:22;43.67;;;22.63;;
18899;SDS011;9582;52.018;6.306;2022-12-15T09:16:50;41.80;;;22.50;;
18899;SDS011;9582;52.018;6.306;2022-12-15T09:19:16;38.77;;;21.97;;
18899;SDS011;9582;52.018;6.306;2022-12-15T09:21:45;37.93;;;23.33;;
18899;SDS011;9582;52.018;6.306;2022-12-15T09:24:12;37.57;;;21.17;;
18899;SDS011;9582;52.018;6.306;2022-12-15T09:26:39;41.60;;;22.23;;
18899;SDS011;9582;52.018;6.306;2022-12-15T09:29:07;37.93;;;21.23;;
18899;SDS011;9582;52.018;6.306;2022-12-15T09:31:36;38.80;;;22.93;;
18899;SDS011;9582;52.018;6.306;2022-12-15T09:34:05;44.83;;;23.67;;
18899;SDS011;9582;52.018;6.306;2022-12-15T09:36:31;36.40;;;22.93;;
18899;SDS011;9582;52.018;6.306;2022-12-15T09:38:58;34.97;;;21.23;;
18899;SDS011;9582;52.018;6.306;2022-12-15T09:41:27;37.53;;;22.13;;
18899;SDS011;9582;52.018;6.306;2022-12-15T09:43:56;43.80;;;23.33;;
18899;SDS011;9582;52.018;6.306;2022-12-15T09:46:28;38.37;;;22.80;;
18899;SDS011;9582;52.018;6.306;2022-12-15T09:49:02;35.77;;;22.43;;
18899;SDS011;9582;52.018;6.306;2022-12-15T09:51:38;42.87;;;23.47;;
18899;SDS011;9582;52.018;6.306;2022-12-15T09:54:11;38.57;;;24.00;;
18899;SDS011;9582;52.018;6.306;2022-12-15T09:56:38;46.23;;;25.03;;
18899;SDS011;9582;52.018;6.306;2022-12-15T09:59:13;42.23;;;24.17;;
18899;SDS011;9582;52.018;6.306;2022-12-15T10:01:49;38.63;;;23.57;;
18899;SDS011;9582;52.018;6.306;2022-12-15T10:04:26;39.93;;;23.43;;
18899;SDS011;9582;52.018;6.306;2022-12-15T10:07:04;44.60;;;25.43;;
18899;SDS011;9582;52.018;6.306;2022-12-15T10:09:38;38.97;;;24.07;;
18899;SDS011;9582;52.018;6.306;2022-12-15T10:12:05;43.67;;;25.40;;
18899;SDS011;9582;52.018;6.306;2022-12-15T10:14:36;42.90;;;25.77;;
18899;SDS011;9582;52.018;6.306;2022-12-15T10:17:11;41.37;;;25.47;;
18899;SDS011;9582;52.018;6.306;2022-12-15T10:19:51;38.70;;;23.83;;
18899;SDS011;9582;52.018;6.306;2022-12-15T10:22:21;44.80;;;23.93;;
18899;SDS011;9582;52.018;6.306;2022-12-15T10:24:50;42.23;;;24.63;;
18899;SDS011;9582;52.018;6.306;2022-12-15T10:27:20;42.40;;;24.13;;
18899;SDS011;9582;52.018;6.306;2022-12-15T10:30:00;42.70;;;25.10;;
18899;SDS011;9582;52.018;6.306;2022-12-15T10:32:30;41.40;;;25.43;;
18899;SDS011;9582;52.018;6.306;2022-12-15T10:35:13;37.80;;;23.50;;
18899;SDS011;9582;52.018;6.306;2022-12-15T10:37:41;38.10;;;22.63;;
18899;SDS011;9582;52.018;6.306;2022-12-15T10:40:08;42.57;;;24.93;;
18899;SDS011;9582;52.018;6.306;2022-12-15T10:42:44;38.77;;;24.57;;
18899;SDS011;9582;52.018;6.306;2022-12-15T10:45:28;43.23;;;25.03;;
18899;SDS011;9582;52.018;6.306;2022-12-15T10:47:57;40.13;;;25.33;;
18899;SDS011;9582;52.018;6.306;2022-12-15T10:50:27;39.53;;;25.87;;
18899;SDS011;9582;52.018;6.306;2022-12-15T10:52:54;38.27;;;25.53;;
18899;SDS011;9582;52.018;6.306;2022-12-15T10:55:30;42.63;;;26.20;;
18899;SDS011;9582;52.018;6.306;2022-12-15T10:58:01;37.10;;;25.63;;
18899;SDS011;9582;52.018;6.306;2022-12-15T11:00:29;41.83;;;26.40;;
18899;SDS011;9582;52.018;6.306;2022-12-15T11:02:57;41.53;;;25.93;;
18899;SDS011;9582;52.018;6.306;2022-12-15T11:05:24;42.63;;;25.73;;
18899;SDS011;9582;52.018;6.306;2022-12-15T11:07:53;43.17;;;26.33;;
18899;SDS011;9582;52.018;6.306;2022-12-15T11:10:22;40.10;;;25.23;;
18899;SDS011;9582;52.018;6.306;2022-12-15T11:12:54;40.17;;;25.13;;
18899;SDS011;9582;52.018;6.306;2022-12-15T11:18:20;41.20;;;25.97;;
18899;SDS011;9582;52.018;6.306;2022-12-15T11:20:55;42.47;;;25.40;;
18899;SDS011;9582;52.018;6.306;2022-12-15T11:23:31;41.10;;;24.50;;
18899;SDS011;9582;52.018;6.306;2022-12-15T11:26:12;37.97;;;23.17;;
18899;SDS011;9582;52.018;6.306;2022-12-15T11:28:46;42.43;;;25.83;;
18899;SDS011;9582;52.018;6.306;2022-12-15T11:31:19;39.20;;;26.00;;
18899;SDS011;9582;52.018;6.306;2022-12-15T11:33:50;43.43;;;25.37;;
18899;SDS011;9582;52.018;6.306;2022-12-15T11:36:19;41.50;;;26.40;;
18899;SDS011;9582;52.018;6.306;2022-12-15T11:39:09;44.53;;;25.27;;
18899;SDS011;9582;52.018;6.306;2022-12-15T11:41:46;47.23;;;26.17;;
18899;SDS011;9582;52.018;6.306;2022-12-15T11:44:21;41.43;;;27.47;;
18899;SDS011;9582;52.018;6.306;2022-12-15T11:46:52;41.73;;;27.73;;
18899;SDS011;9582;52.018;6.306;2022-12-15T11:49:34;39.83;;;26.37;;
18899;SDS011;9582;52.018;6.306;2022-12-15T11:52:18;45.07;;;26.10;;
18899;SDS011;9582;52.018;6.306;2022-12-15T11:55:00;42.03;;;26.43;;
18899;SDS011;9582;52.018;6.306;2022-12-15T11:57:43;43.00;;;25.43;;
18899;SDS011;9582;52.018;6.306;2022-12-15T12:00:20;41.10;;;25.83;;
18899;SDS011;9582;52.018;6.306;2022-12-15T12:03:02;40.93;;;25.13;;
18899;SDS011;9582;52.018;6.306;2022-12-15T12:05:45;44.47;;;26.23;;
18899;SDS011;9582;52.018;6.306;2022-12-15T12:08:34;39.73;;;26.50;;
18899;SDS011;9582;52.018;6.306;2022-12-15T12:11:17;44.53;;;24.63;;
18899;SDS011;9582;52.018;6.306;2022-12-15T12:13:52;40.33;;;25.10;;
18899;SDS011;9582;52.018;6.306;2022-12-15T12:16:30;41.30;;;26.03;;
18899;SDS011;9582;52.018;6.306;2022-12-15T12:19:05;37.60;;;24.87;;
18899;SDS011;9582;52.018;6.306;2022-12-15T12:21:37;41.70;;;25.97;;
18899;SDS011;9582;52.018;6.306;2022-12-15T12:24:09;38.33;;;26.10;;
18899;SDS011;9582;52.018;6.306;2022-12-15T12:26:42;42.10;;;26.67;;
18899;SDS011;9582;52.018;6.306;2022-12-15T12:29:13;45.47;;;27.17;;
18899;SDS011;9582;52.018;6.306;2022-12-15T12:31:47;41.67;;;26.47;;
18899;SDS011;9582;52.018;6.306;2022-12-15T12:34:21;41.60;;;26.10;;
18899;SDS011;9582;52.018;6.306;2022-12-15T12:36:52;40.63;;;26.63;;
18899;SDS011;9582;52.018;6.306;2022-12-15T12:39:23;41.30;;;25.83;;
18899;SDS011;9582;52.018;6.306;2022-12-15T12:41:54;39.13;;;25.80;;
18899;SDS011;9582;52.018;6.306;2022-12-15T12:44:27;42.03;;;26.43;;
18899;SDS011;9582;52.018;6.306;2022-12-15T12:46:56;39.33;;;25.60;;
18899;SDS011;9582;52.018;6.306;2022-12-15T12:49:31;39.60;;;26.30;;
18899;SDS011;9582;52.018;6.306;2022-12-15T12:52:01;40.43;;;26.60;;
18899;SDS011;9582;52.018;6.306;2022-12-15T12:54:38;47.05;;;33.65;;
18899;SDS011;9582;52.018;6.306;2022-12-15T13:00:14;41.10;;;26.63;;
18899;SDS011;9582;52.018;6.306;2022-12-15T13:05:43;37.80;;;23.53;;
18899;SDS011;9582;52.018;6.306;2022-12-15T13:08:24;44.13;;;26.10;;
18899;SDS011;9582;52.018;6.306;2022-12-15T13:14:28;39.70;;;25.63;;
18899;SDS011;9582;52.018;6.306;2022-12-15T13:17:03;41.03;;;26.90;;
18899;SDS011;9582;52.018;6.306;2022-12-15T13:22:46;38.90;;;26.20;;
18899;SDS011;9582;52.018;6.306;2022-12-15T13:25:32;46.70;;;27.67;;
18899;SDS011;9582;52.018;6.306;2022-12-15T13:28:23;42.03;;;25.93;;
18899;SDS011;9582;52.018;6.306;2022-12-15T13:31:13;45.63;;;27.13;;
18899;SDS011;9582;52.018;6.306;2022-12-15T13:33:57;38.17;;;25.43;;
18899;SDS011;9582;52.018;6.306;2022-12-15T13:36:42;37.80;;;26.20;;
18899;SDS011;9582;52.018;6.306;2022-12-15T13:39:32;39.90;;;25.80;;
18899;SDS011;9582;52.018;6.306;2022-12-15T13:42:22;42.10;;;26.93;;
18899;SDS011;9582;52.018;6.306;2022-12-15T13:44:51;38.97;;;26.27;;
18899;SDS011;9582;52.018;6.306;2022-12-15T13:47:24;37.67;;;25.97;;
18899;SDS011;9582;52.018;6.306;2022-12-15T13:49:55;42.93;;;26.67;;
18899;SDS011;9582;52.018;6.306;2022-12-15T13:52:25;38.90;;;24.90;;
18899;SDS011;9582;52.018;6.306;2022-12-15T13:54:54;34.50;;;25.17;;
18899;SDS011;9582;52.018;6.306;2022-12-15T13:57:24;37.43;;;24.27;;
18899;SDS011;9582;52.018;6.306;2022-12-15T13:59:55;43.17;;;26.17;;
18899;SDS011;9582;52.018;6.306;2022-12-15T14:02:37;39.03;;;24.43;;
18899;SDS011;9582;52.018;6.306;2022-12-15T14:05:14;39.47;;;25.13;;
18899;SDS011;9582;52.018;6.306;2022-12-15T14:07:46;37.77;;;24.77;;
18899;SDS011;9582;52.018;6.306;2022-12-15T14:10:18;34.17;;;24.23;;
18899;SDS011;9582;52.018;6.306;2022-12-15T14:12:48;34.83;;;24.57;;
18899;SDS011;9582;52.018;6.306;2022-12-15T14:15:17;35.53;;;23.33;;
18899;SDS011;9582;52.018;6.306;2022-12-15T14:17:47;36.43;;;24.53;;
18899;SDS011;9582;52.018;6.306;2022-12-15T14:20:18;31.47;;;22.50;;
18899;SDS011;9582;52.018;6.306;2022-12-15T14:22:47;36.17;;;24.70;;
18899;SDS011;9582;52.018;6.306;2022-12-15T14:25:16;35.70;;;24.47;;
18899;SDS011;9582;52.018;6.306;2022-12-15T14:27:45;35.27;;;23.77;;
18899;SDS011;9582;52.018;6.306;2022-12-15T14:30:21;37.50;;;24.90;;
18899;SDS011;9582;52.018;6.306;2022-12-15T14:32:51;34.50;;;24.20;;
18899;SDS011;9582;52.018;6.306;2022-12-15T14:35:23;36.33;;;24.70;;
18899;SDS011;9582;52.018;6.306;2022-12-15T14:37:54;39.93;;;24.70;;
18899;SDS011;9582;52.018;6.306;2022-12-15T14:40:23;37.97;;;23.87;;
18899;SDS011;9582;52.018;6.306;2022-12-15T14:42:51;39.03;;;25.00;;
18899;SDS011;9582;52.018;6.306;2022-12-15T14:45:19;38.57;;;24.63;;
18899;SDS011;9582;52.018;6.306;2022-12-15T14:47:50;34.43;;;23.63;;
18899;SDS011;9582;52.018;6.306;2022-12-15T14:50:20;35.43;;;23.67;;
18899;SDS011;9582;52.018;6.306;2022-12-15T14:52:52;37.67;;;24.57;;
18899;SDS011;9582;52.018;6.306;2022-12-15T14:55:25;39.55;;;26.48;;
18899;SDS011;9582;52.018;6.306;2022-12-15T14:57:58;37.80;;;25.57;;
18899;SDS011;9582;52.018;6.306;2022-12-15T15:00:26;40.73;;;25.50;;
18899;SDS011;9582;52.018;6.306;2022-12-15T15:05:52;41.50;;;31.60;;
18899;SDS011;9582;52.018;6.306;2022-12-15T15:08:25;37.37;;;26.50;;
18899;SDS011;9582;52.018;6.306;2022-12-15T15:10:54;37.83;;;25.90;;
18899;SDS011;9582;52.018;6.306;2022-12-15T15:13:24;36.00;;;24.07;;
18899;SDS011;9582;52.018;6.306;2022-12-15T15:15:56;41.60;;;26.00;;
18899;SDS011;9582;52.018;6.306;2022-12-15T15:18:26;35.70;;;25.20;;
18899;SDS011;9582;52.018;6.306;2022-12-15T15:20:54;34.93;;;24.27;;
18899;SDS011;9582;52.018;6.306;2022-12-15T15:23:25;36.00;;;23.90;;
18899;SDS011;9582;52.018;6.306;2022-12-15T15:25:53;36.43;;;22.70;;
18899;SDS011;9582;52.018;6.306;2022-12-15T15:28:22;35.73;;;25.57;;
18899;SDS011;9582;52.018;6.306;2022-12-15T15:30:50;36.30;;;24.83;;
18899;SDS011;9582;52.018;6.306;2022-12-15T15:33:19;42.57;;;25.17;;
18899;SDS011;9582;52.018;6.306;2022-12-15T15:35:48;40.73;;;24.87;;